sensor_id;sensor_type;location;lat;lon;timestamp;P1;durP1;ratioP1;P2;durP2;ratioP2
70342;SDS011;57767;42.068;24.752;2023-04-08T00:00:36;9.90;;;7.43;;
70342;SDS011;57767;42.068;24.752;2023-04-08T00:01:38;10.85;;;8.13;;
70342;SDS011;57767;42.068;24.752;2023-04-08T00:02:40;9.88;;;7.78;;
70342;SDS011;57767;42.068;24.752;2023-04-08T00:03:42;11.15;;;7.95;;
70342;SDS011;57767;42.068;24.752;2023-04-08T00:04:44;10.05;;;8.02;;
70342;SDS011;57767;42.068;24.752;2023-04-08T00:05:46;10.23;;;7.28;;
70342;SDS011;57767;42.068;24.752;2023-04-08T00:06:47;10.25;;;8.55;;
70342;SDS011;57767;42.068;24.752;2023-04-08T00:07:49;10.55;;;7.50;;
70342;SDS011;57767;42.068;24.752;2023-04-08T00:08:51;10.25;;;8.15;;
70342;SDS011;57767;42.068;24.752;2023-04-08T00:09:53;12.85;;;8.13;;
70342;SDS011;57767;42.068;24.752;2023-04-08T00:10:55;14.20;;;7.20;;
70342;SDS011;57767;42.068;24.752;2023-04-08T00:11:56;9.30;;;8.13;;
70342;SDS011;57767;42.068;24.752;2023-04-08T00:12:58;12.02;;;7.95;;
70342;SDS011;57767;42.068;24.752;2023-04-08T00:14:01;11.00;;;8.10;;
70342;SDS011;57767;42.068;24.752;2023-04-08T00:15:03;9.27;;;7.55;;
70342;SDS011;57767;42.068;24.752;2023-04-08T00:16:05;9.00;;;7.85;;
70342;SDS011;57767;42.068;24.752;2023-04-08T00:17:08;12.98;;;8.05;;
70342;SDS011;57767;42.068;24.752;2023-04-08T00:18:10;12.63;;;7.63;;
70342;SDS011;57767;42.068;24.752;2023-04-08T00:19:12;10.93;;;8.30;;
70342;SDS011;57767;42.068;24.752;2023-04-08T00:20:13;11.38;;;8.32;;
70342;SDS011;57767;42.068;24.752;2023-04-08T00:21:15;11.45;;;8.27;;
70342;SDS011;57767;42.068;24.752;2023-04-08T00:22:18;11.02;;;7.65;;
70342;SDS011;57767;42.068;24.752;2023-04-08T00:23:20;11.05;;;8.15;;
70342;SDS011;57767;42.068;24.752;2023-04-08T00:24:21;10.80;;;8.55;;
70342;SDS011;57767;42.068;24.752;2023-04-08T00:25:23;9.07;;;8.15;;
70342;SDS011;57767;42.068;24.752;2023-04-08T00:26:26;11.90;;;8.38;;
70342;SDS011;57767;42.068;24.752;2023-04-08T00:27:27;9.60;;;7.82;;
70342;SDS011;57767;42.068;24.752;2023-04-08T00:28:29;10.90;;;8.50;;
70342;SDS011;57767;42.068;24.752;2023-04-08T00:29:32;12.70;;;8.57;;
70342;SDS011;57767;42.068;24.752;2023-04-08T00:30:34;14.13;;;8.50;;
70342;SDS011;57767;42.068;24.752;2023-04-08T00:31:36;10.40;;;9.07;;
70342;SDS011;57767;42.068;24.752;2023-04-08T00:32:38;10.52;;;8.80;;
70342;SDS011;57767;42.068;24.752;2023-04-08T00:33:40;19.55;;;10.30;;
70342;SDS011;57767;42.068;24.752;2023-04-08T00:34:41;11.98;;;8.85;;
70342;SDS011;57767;42.068;24.752;2023-04-08T00:35:43;13.52;;;9.38;;
70342;SDS011;57767;42.068;24.752;2023-04-08T00:36:46;12.43;;;9.65;;
70342;SDS011;57767;42.068;24.752;2023-04-08T00:37:48;13.27;;;10.45;;
70342;SDS011;57767;42.068;24.752;2023-04-08T00:38:50;11.27;;;8.90;;
70342;SDS011;57767;42.068;24.752;2023-04-08T00:39:52;14.82;;;10.30;;
70342;SDS011;57767;42.068;24.752;2023-04-08T00:40:54;12.27;;;9.60;;
70342;SDS011;57767;42.068;24.752;2023-04-08T00:41:56;13.77;;;10.00;;
70342;SDS011;57767;42.068;24.752;2023-04-08T00:42:58;14.43;;;10.25;;
70342;SDS011;57767;42.068;24.752;2023-04-08T00:43:59;14.88;;;10.15;;
70342;SDS011;57767;42.068;24.752;2023-04-08T00:45:01;14.25;;;10.73;;
70342;SDS011;57767;42.068;24.752;2023-04-08T00:46:04;13.48;;;10.50;;
70342;SDS011;57767;42.068;24.752;2023-04-08T00:47:06;13.00;;;10.77;;
70342;SDS011;57767;42.068;24.752;2023-04-08T00:48:08;13.38;;;11.32;;
70342;SDS011;57767;42.068;24.752;2023-04-08T00:49:09;14.82;;;11.15;;
70342;SDS011;57767;42.068;24.752;2023-04-08T00:50:11;12.73;;;11.30;;
70342;SDS011;57767;42.068;24.752;2023-04-08T00:51:13;14.82;;;10.90;;
70342;SDS011;57767;42.068;24.752;2023-04-08T00:52:15;13.40;;;11.30;;
70342;SDS011;57767;42.068;24.752;2023-04-08T00:53:17;15.07;;;11.50;;
70342;SDS011;57767;42.068;24.752;2023-04-08T00:54:19;15.00;;;11.57;;
70342;SDS011;57767;42.068;24.752;2023-04-08T00:55:21;14.68;;;11.23;;
70342;SDS011;57767;42.068;24.752;2023-04-08T00:56:23;11.88;;;10.27;;
70342;SDS011;57767;42.068;24.752;2023-04-08T00:57:25;12.27;;;11.02;;
70342;SDS011;57767;42.068;24.752;2023-04-08T00:58:27;14.23;;;11.10;;
70342;SDS011;57767;42.068;24.752;2023-04-08T00:59:30;13.85;;;10.98;;
70342;SDS011;57767;42.068;24.752;2023-04-08T01:00:33;12.10;;;10.63;;
70342;SDS011;57767;42.068;24.752;2023-04-08T01:03:10;13.77;;;11.10;;
70342;SDS011;57767;42.068;24.752;2023-04-08T01:04:29;16.00;;;11.07;;
70342;SDS011;57767;42.068;24.752;2023-04-08T01:07:24;16.80;;;12.10;;
70342;SDS011;57767;42.068;24.752;2023-04-08T01:08:29;15.98;;;11.77;;
70342;SDS011;57767;42.068;24.752;2023-04-08T01:09:33;15.15;;;12.43;;
70342;SDS011;57767;42.068;24.752;2023-04-08T01:10:39;14.73;;;11.35;;
70342;SDS011;57767;42.068;24.752;2023-04-08T01:11:45;14.10;;;11.80;;
70342;SDS011;57767;42.068;24.752;2023-04-08T01:12:52;13.82;;;12.23;;
70342;SDS011;57767;42.068;24.752;2023-04-08T01:13:56;16.00;;;12.13;;
70342;SDS011;57767;42.068;24.752;2023-04-08T01:15:05;15.43;;;12.63;;
70342;SDS011;57767;42.068;24.752;2023-04-08T01:16:10;14.65;;;12.30;;
70342;SDS011;57767;42.068;24.752;2023-04-08T01:17:14;16.30;;;12.45;;
70342;SDS011;57767;42.068;24.752;2023-04-08T01:18:20;15.73;;;12.40;;
70342;SDS011;57767;42.068;24.752;2023-04-08T01:19:26;14.88;;;12.55;;
70342;SDS011;57767;42.068;24.752;2023-04-08T01:20:31;16.73;;;13.95;;
70342;SDS011;57767;42.068;24.752;2023-04-08T01:21:35;18.27;;;14.23;;
70342;SDS011;57767;42.068;24.752;2023-04-08T01:23:53;19.20;;;15.38;;
70342;SDS011;57767;42.068;24.752;2023-04-08T01:25:06;20.95;;;15.55;;
70342;SDS011;57767;42.068;24.752;2023-04-08T01:26:11;20.65;;;15.18;;
70342;SDS011;57767;42.068;24.752;2023-04-08T01:27:21;19.20;;;15.87;;
70342;SDS011;57767;42.068;24.752;2023-04-08T01:28:26;22.73;;;15.55;;
70342;SDS011;57767;42.068;24.752;2023-04-08T01:29:30;19.67;;;17.10;;
70342;SDS011;57767;42.068;24.752;2023-04-08T01:30:32;22.17;;;17.63;;
70342;SDS011;57767;42.068;24.752;2023-04-08T01:31:36;21.73;;;18.05;;
70342;SDS011;57767;42.068;24.752;2023-04-08T01:32:41;22.17;;;18.45;;
70342;SDS011;57767;42.068;24.752;2023-04-08T01:33:45;22.05;;;18.40;;
70342;SDS011;57767;42.068;24.752;2023-04-08T01:34:49;23.88;;;18.02;;
70342;SDS011;57767;42.068;24.752;2023-04-08T01:35:52;22.15;;;19.05;;
70342;SDS011;57767;42.068;24.752;2023-04-08T01:36:57;23.88;;;18.52;;
70342;SDS011;57767;42.068;24.752;2023-04-08T01:37:59;25.40;;;19.73;;
70342;SDS011;57767;42.068;24.752;2023-04-08T01:39:03;23.63;;;20.00;;
70342;SDS011;57767;42.068;24.752;2023-04-08T01:40:07;22.13;;;19.30;;
70342;SDS011;57767;42.068;24.752;2023-04-08T01:41:11;25.98;;;19.63;;
70342;SDS011;57767;42.068;24.752;2023-04-08T01:42:13;24.33;;;19.63;;
70342;SDS011;57767;42.068;24.752;2023-04-08T01:43:16;27.33;;;20.13;;
70342;SDS011;57767;42.068;24.752;2023-04-08T01:44:19;24.15;;;20.60;;
70342;SDS011;57767;42.068;24.752;2023-04-08T01:45:22;25.40;;;20.08;;
70342;SDS011;57767;42.068;24.752;2023-04-08T01:46:25;25.30;;;19.85;;
70342;SDS011;57767;42.068;24.752;2023-04-08T01:47:28;23.50;;;19.58;;
70342;SDS011;57767;42.068;24.752;2023-04-08T01:48:31;23.63;;;19.25;;
70342;SDS011;57767;42.068;24.752;2023-04-08T01:49:34;24.23;;;19.73;;
70342;SDS011;57767;42.068;24.752;2023-04-08T01:50:37;23.52;;;19.75;;
70342;SDS011;57767;42.068;24.752;2023-04-08T01:51:42;24.42;;;19.38;;
70342;SDS011;57767;42.068;24.752;2023-04-08T01:52:47;26.88;;;20.50;;
70342;SDS011;57767;42.068;24.752;2023-04-08T01:53:51;25.25;;;21.48;;
70342;SDS011;57767;42.068;24.752;2023-04-08T01:54:53;25.83;;;20.08;;
70342;SDS011;57767;42.068;24.752;2023-04-08T01:55:56;25.65;;;20.65;;
70342;SDS011;57767;42.068;24.752;2023-04-08T01:57:10;25.67;;;20.00;;
70342;SDS011;57767;42.068;24.752;2023-04-08T01:58:16;24.02;;;19.70;;
70342;SDS011;57767;42.068;24.752;2023-04-08T01:59:21;24.23;;;19.63;;
70342;SDS011;57767;42.068;24.752;2023-04-08T02:00:30;26.85;;;20.88;;
70342;SDS011;57767;42.068;24.752;2023-04-08T02:01:34;24.80;;;20.17;;
70342;SDS011;57767;42.068;24.752;2023-04-08T02:02:36;26.88;;;20.85;;
70342;SDS011;57767;42.068;24.752;2023-04-08T02:03:40;24.95;;;20.05;;
70342;SDS011;57767;42.068;24.752;2023-04-08T02:04:44;28.55;;;20.13;;
70342;SDS011;57767;42.068;24.752;2023-04-08T02:05:46;25.88;;;20.10;;
70342;SDS011;57767;42.068;24.752;2023-04-08T02:06:48;27.50;;;20.90;;
70342;SDS011;57767;42.068;24.752;2023-04-08T02:07:50;25.45;;;20.40;;
70342;SDS011;57767;42.068;24.752;2023-04-08T02:08:52;27.50;;;20.90;;
70342;SDS011;57767;42.068;24.752;2023-04-08T02:09:55;25.63;;;20.95;;
70342;SDS011;57767;42.068;24.752;2023-04-08T02:10:57;24.58;;;19.80;;
70342;SDS011;57767;42.068;24.752;2023-04-08T02:11:59;26.98;;;20.10;;
70342;SDS011;57767;42.068;24.752;2023-04-08T02:13:02;28.75;;;20.60;;
70342;SDS011;57767;42.068;24.752;2023-04-08T02:14:03;24.85;;;20.50;;
70342;SDS011;57767;42.068;24.752;2023-04-08T02:15:05;26.30;;;21.42;;
70342;SDS011;57767;42.068;24.752;2023-04-08T02:16:12;24.63;;;20.30;;
70342;SDS011;57767;42.068;24.752;2023-04-08T02:18:07;25.95;;;20.50;;
70342;SDS011;57767;42.068;24.752;2023-04-08T02:18:48;27.25;;;20.73;;
70342;SDS011;57767;42.068;24.752;2023-04-08T02:21:12;29.58;;;22.75;;
70342;SDS011;57767;42.068;24.752;2023-04-08T02:22:16;29.05;;;20.55;;
70342;SDS011;57767;42.068;24.752;2023-04-08T02:23:25;27.00;;;22.00;;
70342;SDS011;57767;42.068;24.752;2023-04-08T02:24:29;26.20;;;21.70;;
70342;SDS011;57767;42.068;24.752;2023-04-08T02:25:34;29.02;;;22.33;;
70342;SDS011;57767;42.068;24.752;2023-04-08T02:26:39;26.33;;;21.02;;
70342;SDS011;57767;42.068;24.752;2023-04-08T02:27:43;26.88;;;22.05;;
70342;SDS011;57767;42.068;24.752;2023-04-08T02:28:49;26.77;;;21.83;;
70342;SDS011;57767;42.068;24.752;2023-04-08T02:29:53;27.00;;;21.42;;
70342;SDS011;57767;42.068;24.752;2023-04-08T02:30:58;30.45;;;21.77;;
70342;SDS011;57767;42.068;24.752;2023-04-08T02:32:02;27.70;;;21.98;;
70342;SDS011;57767;42.068;24.752;2023-04-08T02:33:05;25.30;;;22.17;;
70342;SDS011;57767;42.068;24.752;2023-04-08T02:34:09;26.45;;;22.02;;
70342;SDS011;57767;42.068;24.752;2023-04-08T02:35:12;27.17;;;21.98;;
70342;SDS011;57767;42.068;24.752;2023-04-08T02:36:16;27.60;;;21.83;;
70342;SDS011;57767;42.068;24.752;2023-04-08T02:37:18;28.00;;;21.95;;
70342;SDS011;57767;42.068;24.752;2023-04-08T02:38:20;27.85;;;22.75;;
70342;SDS011;57767;42.068;24.752;2023-04-08T02:39:29;27.05;;;22.13;;
70342;SDS011;57767;42.068;24.752;2023-04-08T02:40:32;28.65;;;22.05;;
70342;SDS011;57767;42.068;24.752;2023-04-08T02:41:35;31.67;;;22.58;;
70342;SDS011;57767;42.068;24.752;2023-04-08T02:42:37;31.42;;;22.67;;
70342;SDS011;57767;42.068;24.752;2023-04-08T02:43:39;30.90;;;23.52;;
70342;SDS011;57767;42.068;24.752;2023-04-08T02:44:41;27.77;;;23.10;;
70342;SDS011;57767;42.068;24.752;2023-04-08T02:45:43;32.20;;;23.85;;
70342;SDS011;57767;42.068;24.752;2023-04-08T02:46:45;28.55;;;24.00;;
70342;SDS011;57767;42.068;24.752;2023-04-08T02:47:46;29.23;;;23.63;;
70342;SDS011;57767;42.068;24.752;2023-04-08T02:48:49;31.67;;;23.50;;
70342;SDS011;57767;42.068;24.752;2023-04-08T02:49:51;30.77;;;22.98;;
70342;SDS011;57767;42.068;24.752;2023-04-08T02:50:55;30.52;;;22.52;;
70342;SDS011;57767;42.068;24.752;2023-04-08T02:51:57;30.83;;;23.92;;
70342;SDS011;57767;42.068;24.752;2023-04-08T02:52:59;31.88;;;23.92;;
70342;SDS011;57767;42.068;24.752;2023-04-08T02:54:01;30.60;;;23.70;;
70342;SDS011;57767;42.068;24.752;2023-04-08T02:55:03;30.08;;;23.75;;
70342;SDS011;57767;42.068;24.752;2023-04-08T02:56:10;29.77;;;24.08;;
70342;SDS011;57767;42.068;24.752;2023-04-08T02:57:12;28.25;;;24.02;;
70342;SDS011;57767;42.068;24.752;2023-04-08T02:58:14;28.95;;;22.70;;
70342;SDS011;57767;42.068;24.752;2023-04-08T02:59:16;30.58;;;22.95;;
70342;SDS011;57767;42.068;24.752;2023-04-08T03:00:18;34.55;;;23.45;;
70342;SDS011;57767;42.068;24.752;2023-04-08T03:01:19;33.38;;;23.67;;
70342;SDS011;57767;42.068;24.752;2023-04-08T03:02:21;32.40;;;24.80;;
70342;SDS011;57767;42.068;24.752;2023-04-08T03:03:23;28.10;;;22.25;;
70342;SDS011;57767;42.068;24.752;2023-04-08T03:04:30;28.60;;;23.55;;
70342;SDS011;57767;42.068;24.752;2023-04-08T03:05:31;27.00;;;23.25;;
70342;SDS011;57767;42.068;24.752;2023-04-08T03:06:33;29.83;;;23.60;;
70342;SDS011;57767;42.068;24.752;2023-04-08T03:07:35;28.42;;;23.52;;
70342;SDS011;57767;42.068;24.752;2023-04-08T03:08:37;27.52;;;23.10;;
70342;SDS011;57767;42.068;24.752;2023-04-08T03:09:39;28.60;;;23.38;;
70342;SDS011;57767;42.068;24.752;2023-04-08T03:10:41;26.58;;;22.75;;
70342;SDS011;57767;42.068;24.752;2023-04-08T03:11:43;29.35;;;23.73;;
70342;SDS011;57767;42.068;24.752;2023-04-08T03:12:45;29.70;;;24.05;;
70342;SDS011;57767;42.068;24.752;2023-04-08T03:13:47;30.98;;;24.75;;
70342;SDS011;57767;42.068;24.752;2023-04-08T03:14:49;33.05;;;24.60;;
70342;SDS011;57767;42.068;24.752;2023-04-08T03:15:51;28.30;;;24.15;;
70342;SDS011;57767;42.068;24.752;2023-04-08T03:16:53;31.83;;;24.58;;
70342;SDS011;57767;42.068;24.752;2023-04-08T03:17:54;27.52;;;24.00;;
70342;SDS011;57767;42.068;24.752;2023-04-08T03:18:56;28.85;;;22.83;;
70342;SDS011;57767;42.068;24.752;2023-04-08T03:19:58;29.48;;;23.00;;
70342;SDS011;57767;42.068;24.752;2023-04-08T03:21:00;27.42;;;22.77;;
70342;SDS011;57767;42.068;24.752;2023-04-08T03:22:03;29.25;;;24.27;;
70342;SDS011;57767;42.068;24.752;2023-04-08T03:23:05;27.63;;;22.88;;
70342;SDS011;57767;42.068;24.752;2023-04-08T03:24:07;31.42;;;23.90;;
70342;SDS011;57767;42.068;24.752;2023-04-08T03:25:08;31.20;;;23.48;;
70342;SDS011;57767;42.068;24.752;2023-04-08T03:26:10;28.73;;;23.23;;
70342;SDS011;57767;42.068;24.752;2023-04-08T03:27:12;27.33;;;22.52;;
70342;SDS011;57767;42.068;24.752;2023-04-08T03:28:14;30.10;;;22.98;;
70342;SDS011;57767;42.068;24.752;2023-04-08T03:29:16;26.42;;;21.95;;
70342;SDS011;57767;42.068;24.752;2023-04-08T03:30:18;28.52;;;22.42;;
70342;SDS011;57767;42.068;24.752;2023-04-08T03:31:20;28.10;;;21.50;;
70342;SDS011;57767;42.068;24.752;2023-04-08T03:32:22;26.25;;;21.70;;
70342;SDS011;57767;42.068;24.752;2023-04-08T03:33:24;30.38;;;23.33;;
70342;SDS011;57767;42.068;24.752;2023-04-08T03:34:25;28.73;;;22.60;;
70342;SDS011;57767;42.068;24.752;2023-04-08T03:35:27;29.88;;;23.08;;
70342;SDS011;57767;42.068;24.752;2023-04-08T03:36:29;29.20;;;23.50;;
70342;SDS011;57767;42.068;24.752;2023-04-08T03:37:31;31.08;;;23.17;;
70342;SDS011;57767;42.068;24.752;2023-04-08T03:38:33;26.42;;;22.17;;
70342;SDS011;57767;42.068;24.752;2023-04-08T03:39:35;29.83;;;22.77;;
70342;SDS011;57767;42.068;24.752;2023-04-08T03:40:37;29.95;;;23.85;;
70342;SDS011;57767;42.068;24.752;2023-04-08T03:41:39;28.42;;;23.02;;
70342;SDS011;57767;42.068;24.752;2023-04-08T03:42:40;27.30;;;22.70;;
70342;SDS011;57767;42.068;24.752;2023-04-08T03:43:42;30.63;;;23.90;;
70342;SDS011;57767;42.068;24.752;2023-04-08T03:44:44;32.50;;;23.45;;
70342;SDS011;57767;42.068;24.752;2023-04-08T03:45:46;30.20;;;23.15;;
70342;SDS011;57767;42.068;24.752;2023-04-08T03:46:48;25.85;;;23.05;;
70342;SDS011;57767;42.068;24.752;2023-04-08T03:47:49;32.45;;;23.83;;
70342;SDS011;57767;42.068;24.752;2023-04-08T03:48:51;33.60;;;23.02;;
70342;SDS011;57767;42.068;24.752;2023-04-08T03:49:53;31.85;;;23.95;;
70342;SDS011;57767;42.068;24.752;2023-04-08T03:50:55;29.30;;;24.17;;
70342;SDS011;57767;42.068;24.752;2023-04-08T03:51:56;29.10;;;23.75;;
70342;SDS011;57767;42.068;24.752;2023-04-08T03:52:58;28.02;;;23.55;;
70342;SDS011;57767;42.068;24.752;2023-04-08T03:54:00;27.02;;;22.63;;
70342;SDS011;57767;42.068;24.752;2023-04-08T03:55:02;29.52;;;24.15;;
70342;SDS011;57767;42.068;24.752;2023-04-08T03:56:03;29.10;;;23.67;;
70342;SDS011;57767;42.068;24.752;2023-04-08T03:57:06;31.05;;;25.08;;
70342;SDS011;57767;42.068;24.752;2023-04-08T03:58:07;31.08;;;23.92;;
70342;SDS011;57767;42.068;24.752;2023-04-08T03:59:09;34.67;;;24.40;;
70342;SDS011;57767;42.068;24.752;2023-04-08T04:00:11;30.45;;;24.15;;
70342;SDS011;57767;42.068;24.752;2023-04-08T04:01:13;32.80;;;24.27;;
70342;SDS011;57767;42.068;24.752;2023-04-08T04:02:15;28.30;;;24.35;;
70342;SDS011;57767;42.068;24.752;2023-04-08T04:03:17;31.23;;;24.23;;
70342;SDS011;57767;42.068;24.752;2023-04-08T04:04:19;31.75;;;25.17;;
70342;SDS011;57767;42.068;24.752;2023-04-08T04:05:21;33.15;;;24.42;;
70342;SDS011;57767;42.068;24.752;2023-04-08T04:06:23;32.75;;;25.65;;
70342;SDS011;57767;42.068;24.752;2023-04-08T04:07:25;29.30;;;23.90;;
70342;SDS011;57767;42.068;24.752;2023-04-08T04:08:26;32.45;;;23.88;;
70342;SDS011;57767;42.068;24.752;2023-04-08T04:09:28;31.20;;;24.42;;
70342;SDS011;57767;42.068;24.752;2023-04-08T04:10:30;29.42;;;24.23;;
70342;SDS011;57767;42.068;24.752;2023-04-08T04:11:35;31.05;;;25.25;;
70342;SDS011;57767;42.068;24.752;2023-04-08T04:12:37;31.27;;;24.65;;
70342;SDS011;57767;42.068;24.752;2023-04-08T04:13:39;29.88;;;24.35;;
70342;SDS011;57767;42.068;24.752;2023-04-08T04:14:41;33.15;;;26.42;;
70342;SDS011;57767;42.068;24.752;2023-04-08T04:15:43;32.67;;;25.58;;
70342;SDS011;57767;42.068;24.752;2023-04-08T04:16:46;33.15;;;26.52;;
70342;SDS011;57767;42.068;24.752;2023-04-08T04:17:47;31.55;;;26.52;;
70342;SDS011;57767;42.068;24.752;2023-04-08T04:18:51;37.08;;;26.98;;
70342;SDS011;57767;42.068;24.752;2023-04-08T04:19:54;32.33;;;26.40;;
70342;SDS011;57767;42.068;24.752;2023-04-08T04:20:56;35.72;;;26.48;;
70342;SDS011;57767;42.068;24.752;2023-04-08T04:21:58;33.97;;;26.98;;
70342;SDS011;57767;42.068;24.752;2023-04-08T04:23:00;33.70;;;28.27;;
70342;SDS011;57767;42.068;24.752;2023-04-08T04:24:02;32.65;;;26.55;;
70342;SDS011;57767;42.068;24.752;2023-04-08T04:25:03;34.47;;;27.08;;
70342;SDS011;57767;42.068;24.752;2023-04-08T04:26:09;33.05;;;26.70;;
70342;SDS011;57767;42.068;24.752;2023-04-08T04:27:12;35.75;;;28.13;;
70342;SDS011;57767;42.068;24.752;2023-04-08T04:28:13;33.78;;;28.70;;
70342;SDS011;57767;42.068;24.752;2023-04-08T04:29:15;34.97;;;27.60;;
70342;SDS011;57767;42.068;24.752;2023-04-08T04:30:17;35.55;;;27.20;;
70342;SDS011;57767;42.068;24.752;2023-04-08T04:31:20;34.20;;;26.83;;
70342;SDS011;57767;42.068;24.752;2023-04-08T04:32:23;35.42;;;27.23;;
70342;SDS011;57767;42.068;24.752;2023-04-08T04:33:25;35.38;;;27.40;;
70342;SDS011;57767;42.068;24.752;2023-04-08T04:34:27;32.30;;;27.23;;
70342;SDS011;57767;42.068;24.752;2023-04-08T04:35:29;35.25;;;26.85;;
70342;SDS011;57767;42.068;24.752;2023-04-08T04:36:31;33.97;;;26.95;;
70342;SDS011;57767;42.068;24.752;2023-04-08T04:37:33;36.08;;;26.85;;
70342;SDS011;57767;42.068;24.752;2023-04-08T04:38:34;32.05;;;26.25;;
70342;SDS011;57767;42.068;24.752;2023-04-08T04:39:37;32.92;;;26.00;;
70342;SDS011;57767;42.068;24.752;2023-04-08T04:40:39;41.20;;;28.00;;
70342;SDS011;57767;42.068;24.752;2023-04-08T04:41:41;31.23;;;26.33;;
70342;SDS011;57767;42.068;24.752;2023-04-08T04:42:44;34.15;;;26.42;;
70342;SDS011;57767;42.068;24.752;2023-04-08T04:43:46;32.45;;;26.05;;
70342;SDS011;57767;42.068;24.752;2023-04-08T04:44:47;34.38;;;26.25;;
70342;SDS011;57767;42.068;24.752;2023-04-08T04:45:49;33.95;;;26.63;;
70342;SDS011;57767;42.068;24.752;2023-04-08T04:46:51;32.58;;;25.88;;
70342;SDS011;57767;42.068;24.752;2023-04-08T04:47:53;33.05;;;26.77;;
70342;SDS011;57767;42.068;24.752;2023-04-08T04:48:55;32.60;;;25.98;;
70342;SDS011;57767;42.068;24.752;2023-04-08T04:49:57;32.95;;;26.63;;
70342;SDS011;57767;42.068;24.752;2023-04-08T04:51:00;34.90;;;26.30;;
70342;SDS011;57767;42.068;24.752;2023-04-08T04:52:03;37.20;;;27.35;;
70342;SDS011;57767;42.068;24.752;2023-04-08T04:53:05;33.13;;;27.02;;
70342;SDS011;57767;42.068;24.752;2023-04-08T04:54:07;36.55;;;26.67;;
70342;SDS011;57767;42.068;24.752;2023-04-08T04:55:09;34.67;;;26.05;;
70342;SDS011;57767;42.068;24.752;2023-04-08T04:56:10;37.40;;;27.00;;
70342;SDS011;57767;42.068;24.752;2023-04-08T04:57:12;32.72;;;26.55;;
70342;SDS011;57767;42.068;24.752;2023-04-08T04:58:14;32.97;;;26.88;;
70342;SDS011;57767;42.068;24.752;2023-04-08T04:59:16;34.72;;;28.25;;
70342;SDS011;57767;42.068;24.752;2023-04-08T05:00:18;33.33;;;27.08;;
70342;SDS011;57767;42.068;24.752;2023-04-08T05:01:19;36.25;;;26.98;;
70342;SDS011;57767;42.068;24.752;2023-04-08T05:02:21;34.78;;;26.25;;
70342;SDS011;57767;42.068;24.752;2023-04-08T05:03:23;36.30;;;27.40;;
70342;SDS011;57767;42.068;24.752;2023-04-08T05:04:25;39.33;;;27.25;;
70342;SDS011;57767;42.068;24.752;2023-04-08T05:05:27;31.70;;;26.63;;
70342;SDS011;57767;42.068;24.752;2023-04-08T05:06:29;32.42;;;26.45;;
70342;SDS011;57767;42.068;24.752;2023-04-08T05:07:34;34.70;;;26.80;;
70342;SDS011;57767;42.068;24.752;2023-04-08T05:08:36;37.58;;;27.23;;
70342;SDS011;57767;42.068;24.752;2023-04-08T05:09:38;34.28;;;25.77;;
70342;SDS011;57767;42.068;24.752;2023-04-08T05:10:40;31.27;;;27.40;;
70342;SDS011;57767;42.068;24.752;2023-04-08T05:11:42;31.33;;;25.85;;
70342;SDS011;57767;42.068;24.752;2023-04-08T05:12:44;37.67;;;28.42;;
70342;SDS011;57767;42.068;24.752;2023-04-08T05:13:45;34.13;;;27.08;;
70342;SDS011;57767;42.068;24.752;2023-04-08T05:14:47;35.92;;;27.33;;
70342;SDS011;57767;42.068;24.752;2023-04-08T05:15:49;36.00;;;28.40;;
70342;SDS011;57767;42.068;24.752;2023-04-08T05:16:51;38.50;;;28.70;;
70342;SDS011;57767;42.068;24.752;2023-04-08T05:17:53;36.78;;;28.20;;
70342;SDS011;57767;42.068;24.752;2023-04-08T05:18:54;37.58;;;28.13;;
70342;SDS011;57767;42.068;24.752;2023-04-08T05:19:56;36.58;;;28.85;;
70342;SDS011;57767;42.068;24.752;2023-04-08T05:20:58;37.83;;;29.38;;
70342;SDS011;57767;42.068;24.752;2023-04-08T05:22:00;40.22;;;29.33;;
70342;SDS011;57767;42.068;24.752;2023-04-08T05:23:01;43.15;;;30.50;;
70342;SDS011;57767;42.068;24.752;2023-04-08T05:24:03;38.45;;;29.58;;
70342;SDS011;57767;42.068;24.752;2023-04-08T05:25:05;38.97;;;29.67;;
70342;SDS011;57767;42.068;24.752;2023-04-08T05:26:07;40.83;;;30.50;;
70342;SDS011;57767;42.068;24.752;2023-04-08T05:27:09;43.20;;;30.80;;
70342;SDS011;57767;42.068;24.752;2023-04-08T05:28:11;39.35;;;29.67;;
70342;SDS011;57767;42.068;24.752;2023-04-08T05:29:13;41.85;;;31.80;;
70342;SDS011;57767;42.068;24.752;2023-04-08T05:30:14;39.15;;;28.83;;
70342;SDS011;57767;42.068;24.752;2023-04-08T05:31:17;42.15;;;30.80;;
70342;SDS011;57767;42.068;24.752;2023-04-08T05:32:20;42.67;;;31.17;;
70342;SDS011;57767;42.068;24.752;2023-04-08T05:33:22;43.47;;;30.95;;
70342;SDS011;57767;42.068;24.752;2023-04-08T05:34:24;41.40;;;30.92;;
70342;SDS011;57767;42.068;24.752;2023-04-08T05:35:27;43.50;;;32.13;;
70342;SDS011;57767;42.068;24.752;2023-04-08T05:36:29;40.13;;;31.73;;
70342;SDS011;57767;42.068;24.752;2023-04-08T05:37:32;43.70;;;32.72;;
70342;SDS011;57767;42.068;24.752;2023-04-08T05:38:34;51.30;;;36.05;;
70342;SDS011;57767;42.068;24.752;2023-04-08T05:39:36;43.83;;;32.85;;
70342;SDS011;57767;42.068;24.752;2023-04-08T05:40:38;42.67;;;30.92;;
70342;SDS011;57767;42.068;24.752;2023-04-08T05:41:39;48.70;;;31.90;;
70342;SDS011;57767;42.068;24.752;2023-04-08T05:42:41;41.88;;;31.15;;
70342;SDS011;57767;42.068;24.752;2023-04-08T05:43:43;41.25;;;31.40;;
70342;SDS011;57767;42.068;24.752;2023-04-08T05:44:44;42.75;;;31.02;;
70342;SDS011;57767;42.068;24.752;2023-04-08T05:45:47;42.08;;;32.15;;
70342;SDS011;57767;42.068;24.752;2023-04-08T05:46:48;43.88;;;30.95;;
70342;SDS011;57767;42.068;24.752;2023-04-08T05:47:50;42.10;;;31.65;;
70342;SDS011;57767;42.068;24.752;2023-04-08T05:48:52;41.35;;;30.92;;
70342;SDS011;57767;42.068;24.752;2023-04-08T05:49:54;40.20;;;29.40;;
70342;SDS011;57767;42.068;24.752;2023-04-08T05:50:56;40.63;;;31.60;;
70342;SDS011;57767;42.068;24.752;2023-04-08T05:51:57;41.00;;;31.83;;
70342;SDS011;57767;42.068;24.752;2023-04-08T05:52:59;42.45;;;32.10;;
70342;SDS011;57767;42.068;24.752;2023-04-08T05:54:01;39.40;;;29.67;;
70342;SDS011;57767;42.068;24.752;2023-04-08T05:55:03;39.05;;;29.88;;
70342;SDS011;57767;42.068;24.752;2023-04-08T05:56:06;40.72;;;31.45;;
70342;SDS011;57767;42.068;24.752;2023-04-08T05:57:08;44.25;;;31.55;;
70342;SDS011;57767;42.068;24.752;2023-04-08T05:58:10;42.10;;;30.35;;
70342;SDS011;57767;42.068;24.752;2023-04-08T05:59:12;45.17;;;30.25;;
70342;SDS011;57767;42.068;24.752;2023-04-08T06:00:14;44.25;;;31.88;;
70342;SDS011;57767;42.068;24.752;2023-04-08T06:01:17;44.33;;;31.02;;
70342;SDS011;57767;42.068;24.752;2023-04-08T06:02:19;45.63;;;31.90;;
70342;SDS011;57767;42.068;24.752;2023-04-08T06:03:21;43.95;;;31.88;;
70342;SDS011;57767;42.068;24.752;2023-04-08T06:04:24;39.60;;;31.08;;
70342;SDS011;57767;42.068;24.752;2023-04-08T06:05:25;47.22;;;31.80;;
70342;SDS011;57767;42.068;24.752;2023-04-08T06:06:27;40.50;;;30.95;;
70342;SDS011;57767;42.068;24.752;2023-04-08T06:07:29;44.63;;;31.58;;
70342;SDS011;57767;42.068;24.752;2023-04-08T06:08:31;44.58;;;31.63;;